Time;durP1;ratioP1;P1;durP2;ratioP2;P2;SDS_P1;SDS_P2;PMS_P1;PMS_P2;Temp;Humidity;BMP_temperature;BMP_pressure;BME280_temperature;BME280_humidity;BME280_pressure;Samples;Min_cycle;Max_cycle;Signal;HPM_P1;HPM_P2
2023/07/19 00:00:43;;;;;;;1.15;0.77;;;;;;;18.49;98.92;101129.53;6275104;28;20041;-76
2023/07/19 00:03:44;;;;;;;2.42;1.00;;;;;;;18.52;98.78;101126.59;6274786;28;20045;-76
2023/07/19 00:06:45;;;;;;;1.33;0.90;;;;;;;18.50;100.00;101123.25;6275042;28;20049;-76
2023/07/19 00:09:48;;;;;;;0.88;0.80;;;;;;;18.48;100.00;101133.16;6274957;28;20045;-76
2023/07/19 00:12:50;;;;;;;3.83;1.23;;;;;;;18.47;100.00;101134.13;6274642;28;20045;-76
2023/07/19 00:15:51;;;;;;;2.60;1.05;;;;;;;18.47;100.00;101134.13;6283290;28;20562;-76
2023/07/19 00:18:53;;;;;;;2.08;1.10;;;;;;;18.45;99.61;101135.22;6274837;28;20045;-76
2023/07/19 00:21:54;;;;;;;1.45;0.88;;;;;;;18.40;100.00;101140.94;6283199;28;20052;-76
2023/07/19 00:24:57;;;;;;;1.92;1.20;;;;;;;18.39;100.00;101136.53;6274554;28;20353;-76
2023/07/19 00:27:58;;;;;;;3.50;0.70;;;;;;;18.33;99.21;101136.19;6267117;28;20049;-76
2023/07/19 00:31:01;;;;;;;5.32;1.00;;;;;;;18.28;98.48;101117.94;6274697;28;20345;-76
2023/07/19 00:34:02;;;;;;;1.58;0.80;;;;;;;18.30;100.00;101117.81;6275740;28;20067;-76
2023/07/19 00:37:04;;;;;;;4.90;1.13;;;;;;;18.30;100.00;101109.81;6282075;28;20056;-76
2023/07/19 00:40:08;;;;;;;2.10;0.85;;;;;;;18.25;100.00;101100.41;6274683;28;20354;-77
2023/07/19 00:43:10;;;;;;;2.03;0.75;;;;;;;18.24;100.00;101111.19;6282652;28;20049;-76
2023/07/19 00:46:11;;;;;;;0.80;0.77;;;;;;;18.25;100.00;101099.56;6273510;28;20053;-76
2023/07/19 00:49:13;;;;;;;1.80;0.93;;;;;;;18.19;100.00;101095.56;6274587;28;20053;-77
2023/07/19 00:52:14;;;;;;;1.27;0.95;;;;;;;18.20;100.00;101091.09;6274146;28;20049;-76
2023/07/19 00:55:18;;;;;;;2.58;1.10;;;;;;;18.17;100.00;101092.22;6274794;28;20464;-76
2023/07/19 00:58:22;;;;;;;1.85;0.98;;;;;;;18.09;100.00;101094.63;6274708;28;20048;-76
2023/07/19 01:01:24;;;;;;;1.40;1.13;;;;;;;18.11;100.00;101092.69;6274505;28;20068;-76
2023/07/19 01:04:27;;;;;;;5.05;1.15;;;;;;;18.06;100.00;101089.53;6275592;28;20045;-76
2023/07/19 01:07:28;;;;;;;2.08;0.90;;;;;;;18.03;100.00;101079.13;6278754;28;20063;-76
2023/07/19 01:10:32;;;;;;;1.65;1.00;;;;;;;17.99;100.00;101086.53;6278785;28;20460;-76
2023/07/19 01:13:33;;;;;;;0.90;0.80;;;;;;;17.94;100.00;101079.88;6278392;28;20052;-76
2023/07/19 01:16:35;;;;;;;4.32;1.45;;;;;;;17.90;100.00;101078.44;6287243;28;20041;-76
2023/07/19 01:19:36;;;;;;;1.73;1.20;;;;;;;17.90;100.00;101081.09;6278655;28;20041;-76
2023/07/19 01:22:41;;;;;;;2.13;0.82;;;;;;;17.86;100.00;101079.66;6278370;28;20048;-76
2023/07/19 01:25:43;;;;;;;1.10;0.90;;;;;;;17.79;100.00;101078.41;6278574;28;20448;-77
2023/07/19 01:28:45;;;;;;;1.65;0.98;;;;;;;17.80;100.00;101061.50;6286640;28;20334;-76
2023/07/19 01:31:46;;;;;;;1.73;0.77;;;;;;;17.75;100.00;101061.84;6278137;28;20072;-77
2023/07/19 01:34:48;;;;;;;2.53;1.20;;;;;;;17.61;100.00;101065.56;6278500;28;20053;-76
2023/07/19 01:37:50;;;;;;;2.90;1.15;;;;;;;17.59;100.00;101067.50;6278243;28;20322;-76
2023/07/19 01:40:52;;;;;;;1.23;1.10;;;;;;;17.62;100.00;101066.41;6278082;28;20041;-76
2023/07/19 01:43:53;;;;;;;1.90;1.10;;;;;;;17.61;100.00;101054.09;6278049;28;20064;-76
2023/07/19 01:46:55;;;;;;;2.67;0.70;;;;;;;17.61;100.00;101054.94;6277976;28;20049;-76
2023/07/19 01:49:56;;;;;;;2.67;1.17;;;;;;;17.50;100.00;101053.13;6286286;28;20041;-76
2023/07/19 01:52:59;;;;;;;3.13;1.25;;;;;;;17.46;100.00;101050.81;6277648;28;20052;-76
2023/07/19 01:56:00;;;;;;;1.63;1.02;;;;;;;17.49;100.00;101043.47;6269871;28;20355;-76
2023/07/19 01:59:02;;;;;;;4.03;1.88;;;;;;;17.53;100.00;101046.69;6277702;28;20057;-76
2023/07/19 02:02:03;;;;;;;4.40;1.95;;;;;;;17.54;100.00;101039.59;6285919;28;20045;-76
2023/07/19 02:05:06;;;;;;;2.60;1.50;;;;;;;17.49;100.00;101026.69;6274411;28;20056;-76
2023/07/19 02:08:09;;;;;;;1.45;1.10;;;;;;;17.52;100.00;101029.06;6271020;28;20068;-76
2023/07/19 02:11:10;;;;;;;1.30;0.95;;;;;;;17.52;100.00;101022.91;6277258;28;20049;-76
2023/07/19 02:14:12;;;;;;;4.38;1.45;;;;;;;17.42;100.00;101017.47;6277237;28;20056;-76
2023/07/19 02:17:13;;;;;;;4.35;1.40;;;;;;;17.42;100.00;101028.09;6275501;28;20048;-77
2023/07/19 02:20:19;;;;;;;3.45;1.10;;;;;;;17.30;100.00;101021.91;6277440;28;20449;-76
2023/07/19 02:23:22;;;;;;;2.72;1.13;;;;;;;17.28;100.00;101031.81;6276798;28;20440;-76
2023/07/19 02:26:23;;;;;;;3.05;0.88;;;;;;;17.27;100.00;101029.31;6277482;28;20087;-76
2023/07/19 02:29:25;;;;;;;1.40;0.98;;;;;;;17.32;100.00;101013.84;6288866;28;20041;-76
2023/07/19 02:32:26;;;;;;;7.13;1.20;;;;;;;17.33;100.00;101003.09;6281338;28;20048;-76
2023/07/19 02:35:27;;;;;;;1.88;1.42;;;;;;;17.30;100.00;101008.63;6276929;28;20053;-76
2023/07/19 02:38:30;;;;;;;2.35;1.05;;;;;;;17.30;100.00;101005.13;6276708;28;20049;-76
2023/07/19 02:41:32;;;;;;;2.45;1.27;;;;;;;17.23;100.00;101002.13;6276528;28;20396;-76
2023/07/19 02:44:33;;;;;;;2.30;1.13;;;;;;;17.26;100.00;100999.25;6276336;28;20373;-76
2023/07/19 02:47:35;;;;;;;2.15;1.15;;;;;;;17.22;100.00;100992.47;6275670;28;20048;-76
2023/07/19 02:50:36;;;;;;;1.77;1.27;;;;;;;17.19;100.00;100985.56;6276452;28;20041;-76
2023/07/19 02:53:40;;;;;;;6.70;1.67;;;;;;;17.19;100.00;100971.44;6275789;28;20052;-76
2023/07/19 02:56:41;;;;;;;6.78;1.85;;;;;;;17.14;100.00;100969.16;6275831;28;20365;-76
2023/07/19 02:59:42;;;;;;;2.42;1.33;;;;;;;17.10;100.00;100966.84;6275866;28;20041;-76
2023/07/19 03:02:47;;;;;;;3.15;1.40;;;;;;;17.09;100.00;100973.13;6275433;28;20048;-76
2023/07/19 03:05:49;;;;;;;4.80;1.30;;;;;;;17.07;100.00;100969.72;6273848;28;20090;-76
2023/07/19 03:08:52;;;;;;;2.35;1.70;;;;;;;17.08;100.00;100966.97;6271979;28;20060;-77
2023/07/19 03:11:53;;;;;;;1.63;1.40;;;;;;;17.11;100.00;100968.53;6272193;28;20048;-77
2023/07/19 03:14:55;;;;;;;2.20;1.40;;;;;;;17.23;100.00;100963.13;6266820;28;20045;-76
2023/07/19 03:17:56;;;;;;;4.75;2.17;;;;;;;17.18;100.00;100967.94;6275686;28;20438;-76
2023/07/19 03:20:58;;;;;;;3.75;1.52;;;;;;;17.20;100.00;100973.97;6273098;28;20500;-76
2023/07/19 03:24:00;;;;;;;2.08;1.38;;;;;;;17.20;100.00;100973.97;6273636;28;20068;-76
2023/07/19 03:27:02;;;;;;;1.25;1.13;;;;;;;17.20;100.00;100975.78;6273972;28;20049;-76
2023/07/19 03:30:06;;;;;;;2.42;1.38;;;;;;;17.13;100.00;100972.78;6275104;28;20052;-76
2023/07/19 03:33:08;;;;;;;5.15;1.60;;;;;;;17.11;100.00;100964.06;6267787;28;20049;-76
2023/07/19 03:36:09;;;;;;;2.00;1.33;;;;;;;17.10;100.00;100962.38;6255694;28;20055;-76
2023/07/19 03:39:12;;;;;;;2.05;1.30;;;;;;;17.09;100.00;100958.03;6256695;28;20041;-77
2023/07/19 03:42:13;;;;;;;1.20;1.10;;;;;;;16.99;100.00;100949.94;6259345;28;20044;-77
2023/07/19 03:45:15;;;;;;;3.22;1.67;;;;;;;16.98;100.00;100950.88;6253833;28;20056;-76
2023/07/19 03:48:17;;;;;;;4.05;1.65;;;;;;;16.99;100.00;100955.25;6255608;28;20049;-77
2023/07/19 03:51:19;;;;;;;7.22;1.65;;;;;;;17.01;100.00;100955.13;6267704;28;20041;-76
2023/07/19 03:54:21;;;;;;;1.17;1.08;;;;;;;17.04;100.00;100951.41;6275084;28;20053;-76
2023/07/19 03:57:23;;;;;;;6.13;1.48;;;;;;;17.06;100.00;100966.22;6275068;28;20361;-76
2023/07/19 04:00:24;;;;;;;2.17;1.45;;;;;;;17.12;100.00;100968.44;6265372;28;20037;-77
2023/07/19 04:03:27;;;;;;;1.92;1.27;;;;;;;17.15;100.00;100964.69;6263708;28;20041;-76
2023/07/19 04:06:28;;;;;;;3.85;1.40;;;;;;;17.17;100.00;100968.09;6279180;28;20441;-76
2023/07/19 04:09:31;;;;;;;2.08;1.20;;;;;;;17.18;100.00;100967.09;6274947;28;20048;-76
2023/07/19 04:12:33;;;;;;;1.63;0.93;;;;;;;17.19;100.00;100968.78;6283233;28;20044;-76
2023/07/19 04:15:34;;;;;;;1.30;1.17;;;;;;;17.22;100.00;100961.44;6274949;28;20353;-76
2023/07/19 04:18:35;;;;;;;2.95;1.38;;;;;;;17.23;100.00;100955.16;6275238;28;20048;-76
2023/07/19 04:21:37;;;;;;;3.60;1.48;;;;;;;17.22;100.00;100956.13;6275137;28;20041;-76
2023/07/19 04:24:39;;;;;;;2.78;1.45;;;;;;;17.20;100.00;100963.34;6274509;28;20049;-76
2023/07/19 04:27:41;;;;;;;1.45;1.02;;;;;;;17.22;100.00;100961.44;6274869;28;20045;-76
2023/07/19 04:30:42;;;;;;;3.85;1.88;;;;;;;17.14;100.00;100963.00;6274624;28;20041;-76
2023/07/19 04:33:44;;;;;;;3.20;1.83;;;;;;;17.09;100.00;100954.53;6280533;28;20056;-76
2023/07/19 04:36:45;;;;;;;6.47;1.60;;;;;;;17.11;100.00;100955.25;6276912;28;20045;-76
2023/07/19 04:39:48;;;;;;;1.55;1.35;;;;;;;17.12;100.00;100955.16;6276971;28;20122;-76
2023/07/19 04:42:50;;;;;;;2.72;1.77;;;;;;;17.13;100.00;100953.34;6278943;28;20175;-77
2023/07/19 04:45:51;;;;;;;3.03;1.50;;;;;;;17.12;100.00;100951.63;6278218;28;20120;-76
2023/07/19 04:48:53;;;;;;;3.38;1.95;;;;;;;17.12;100.00;100952.50;6279148;28;20048;-76
2023/07/19 04:51:54;;;;;;;4.28;1.55;;;;;;;17.14;100.00;100953.22;6279268;28;20128;-76
2023/07/19 04:54:57;;;;;;;2.78;1.52;;;;;;;17.17;100.00;100954.81;6287433;28;20455;-76
2023/07/19 04:57:58;;;;;;;2.35;1.85;;;;;;;17.18;100.00;100953.81;6276799;28;20076;-76
2023/07/19 05:01:05;;;;;;;5.28;1.63;;;;;;;17.24;100.00;100956.84;6279077;28;20045;-76
2023/07/19 05:04:06;;;;;;;2.63;1.70;;;;;;;17.22;100.00;100950.81;6278840;28;20059;-77
2023/07/19 05:07:07;;;;;;;3.78;1.67;;;;;;;17.24;100.00;100948.03;6287442;28;20170;-76
2023/07/19 05:10:11;;;;;;;2.17;1.40;;;;;;;17.24;100.00;100945.38;6278800;28;20048;-76
2023/07/19 05:13:12;;;;;;;2.80;1.60;;;;;;;17.26;100.00;100946.13;6278563;28;20045;-77
2023/07/19 05:16:14;;;;;;;4.53;1.42;;;;;;;17.29;100.00;100948.50;6278733;28;20449;-76
2023/07/19 05:19:15;;;;;;;3.97;1.45;;;;;;;17.31;100.00;100948.41;6278851;28;20045;-76
2023/07/19 05:22:16;;;;;;;1.80;1.40;;;;;;;17.27;100.00;100954.94;6278315;28;20053;-76
2023/07/19 05:25:19;;;;;;;2.08;1.60;;;;;;;17.31;100.00;100954.56;6287109;28;20044;-76
2023/07/19 05:28:20;;;;;;;2.72;1.80;;;;;;;17.33;100.00;100949.13;6286759;28;20346;-76
2023/07/19 05:31:22;;;;;;;2.05;1.60;;;;;;;17.26;100.00;100946.13;6286443;28;20049;-76
2023/07/19 05:34:23;;;;;;;3.97;1.90;;;;;;;17.33;100.00;100947.31;6278147;28;20052;-76
2023/07/19 05:37:25;;;;;;;1.70;1.38;;;;;;;17.39;100.00;100948.63;6278242;28;20385;-76
2023/07/19 05:40:27;;;;;;;4.75;1.67;;;;;;;17.37;100.00;100948.75;6278373;28;20044;-77
2023/07/19 05:43:29;;;;;;;2.78;1.63;;;;;;;17.32;100.00;100950.94;6277755;28;20060;-76
2023/07/19 05:46:30;;;;;;;4.93;1.80;;;;;;;17.30;100.00;100957.31;6277734;28;20049;-76
2023/07/19 05:49:32;;;;;;;3.80;2.13;;;;;;;17.20;100.00;100954.53;6277510;28;20041;-76
2023/07/19 05:52:33;;;;;;;5.00;1.70;;;;;;;17.28;100.00;100959.25;6277209;28;20040;-77
2023/07/19 05:55:37;;;;;;;3.00;1.33;;;;;;;17.33;100.00;100959.75;6277679;28;20081;-76
2023/07/19 05:58:38;;;;;;;2.92;1.90;;;;;;;17.38;100.00;100965.53;6277663;28;20353;-76
2023/07/19 06:01:40;;;;;;;4.07;1.63;;;;;;;17.45;100.00;100961.44;6276642;28;20088;-73
2023/07/19 06:04:41;;;;;;;12.75;2.70;;;;;;;17.43;100.00;100950.91;6276542;28;20399;-73
2023/07/19 06:07:44;;;;;;;4.65;2.40;;;;;;;17.45;100.00;100959.63;6283215;28;20041;-71
2023/07/19 06:10:47;;;;;;;3.97;1.70;;;;;;;17.47;100.00;100954.19;6279614;28;20045;-73
2023/07/19 06:13:48;;;;;;;4.57;1.90;;;;;;;17.55;100.00;100957.09;6277010;28;20446;-73
2023/07/19 06:16:50;;;;;;;3.03;2.15;;;;;;;17.53;100.00;100956.34;6279026;28;20124;-73
2023/07/19 06:19:51;;;;;;;2.72;1.80;;;;;;;17.56;100.00;100957.94;6273805;28;20053;-73
2023/07/19 06:22:53;;;;;;;4.07;2.53;;;;;;;17.56;100.00;100961.44;6274031;28;20041;-73
2023/07/19 06:25:55;;;;;;;5.32;2.40;;;;;;;17.52;100.00;100953.81;6276835;28;20049;-73
2023/07/19 06:28:57;;;;;;;4.78;2.40;;;;;;;17.45;100.00;100958.78;6273887;28;20049;-73
2023/07/19 06:31:58;;;;;;;3.35;1.80;;;;;;;17.51;100.00;100963.63;6276336;28;20040;-73
2023/07/19 06:34:59;;;;;;;5.03;2.50;;;;;;;17.45;100.00;100964.94;6275770;28;20055;-73
2023/07/19 06:38:01;;;;;;;3.53;2.45;;;;;;;17.31;100.00;100964.34;6276219;28;20056;-73
2023/07/19 06:41:04;;;;;;;4.57;2.28;;;;;;;17.33;100.00;100965.91;6275996;28;20044;-73
2023/07/19 06:44:05;;;;;;;5.20;1.80;;;;;;;17.39;100.00;100961.91;6276455;28;20052;-73
2023/07/19 06:47:07;;;;;;;2.40;1.83;;;;;;;17.39;100.00;100962.75;6275635;28;20060;-73
2023/07/19 06:50:09;;;;;;;3.33;2.13;;;;;;;17.35;100.00;100964.00;6276278;28;20053;-74
2023/07/19 06:53:10;;;;;;;4.53;2.60;;;;;;;17.43;100.00;100960.72;6272991;28;20404;-74
2023/07/19 06:56:13;;;;;;;4.50;2.00;;;;;;;17.41;100.00;100967.97;6269857;28;20041;-72
2023/07/19 06:59:14;;;;;;;5.30;2.22;;;;;;;17.43;100.00;100964.22;6270665;28;20048;-73
2023/07/19 07:02:16;;;;;;;6.05;1.88;;;;;;;17.56;100.00;100960.59;6275176;28;20056;-73
2023/07/19 07:05:17;;;;;;;6.15;2.33;;;;;;;17.60;100.00;100972.66;6276309;28;20045;-73
2023/07/19 07:08:19;;;;;;;5.93;2.53;;;;;;;17.62;100.00;100968.94;6274720;28;20460;-73
2023/07/19 07:11:22;;;;;;;3.25;2.33;;;;;;;17.68;100.00;100972.91;6268626;28;20045;-73
2023/07/19 07:14:23;;;;;;;3.83;2.50;;;;;;;17.62;100.00;100971.59;6265642;28;20053;-73
2023/07/19 07:17:24;;;;;;;4.68;2.05;;;;;;;17.65;100.00;100970.50;6275777;28;20064;-73
2023/07/19 07:20:26;;;;;;;6.25;2.00;;;;;;;17.69;100.00;100982.56;6276026;28;20048;-73
2023/07/19 07:23:27;;;;;;;2.67;1.92;;;;;;;17.66;100.00;100983.66;6275382;28;20052;-73
2023/07/19 07:26:30;;;;;;;3.15;1.63;;;;;;;17.66;100.00;100981.00;6273304;28;20041;-72
2023/07/19 07:29:32;;;;;;;5.43;1.77;;;;;;;17.79;100.00;100988.88;6268153;28;20136;-73
2023/07/19 07:32:34;;;;;;;3.35;2.10;;;;;;;17.91;100.00;100985.25;6274763;28;20056;-73
2023/07/19 07:35:36;;;;;;;3.13;1.73;;;;;;;17.99;100.00;100974.84;6275177;28;20044;-73
2023/07/19 07:38:37;;;;;;;4.97;2.08;;;;;;;18.06;100.00;100983.16;6275648;28;20053;-73
2023/07/19 07:41:40;;;;;;;2.95;1.98;;;;;;;18.01;100.00;100974.69;6275224;28;20045;-73
2023/07/19 07:44:41;;;;;;;6.68;1.75;;;;;;;18.03;100.00;100986.06;6275250;28;20072;-73
2023/07/19 07:47:43;;;;;;;3.03;1.95;;;;;;;18.05;100.00;100976.16;6275502;28;20044;-73
2023/07/19 07:50:44;;;;;;;2.92;1.90;;;;;;;18.09;100.00;100980.25;6274978;28;20445;-73
2023/07/19 07:53:46;;;;;;;5.85;2.30;;;;;;;18.16;100.00;100967.28;6274918;28;20045;-74
2023/07/19 07:56:49;;;;;;;5.28;2.10;;;;;;;18.13;100.00;100972.88;6273655;28;20163;-74
2023/07/19 07:59:50;;;;;;;7.85;1.90;;;;;;;18.17;100.00;100963.69;6270977;28;20049;-73
2023/07/19 08:02:51;;;;;;;2.72;1.60;;;;;;;18.26;100.00;100962.94;6274526;28;20044;-74
2023/07/19 08:05:54;;;;;;;5.05;1.60;;;;;;;18.36;100.00;100963.00;6271170;28;20361;-74
2023/07/19 08:08:55;;;;;;;4.82;1.88;;;;;;;18.45;100.00;100952.44;6274270;28;20049;-74
2023/07/19 08:11:58;;;;;;;2.28;1.60;;;;;;;18.61;100.00;100953.81;6274700;28;20048;-73
2023/07/19 08:14:59;;;;;;;5.55;1.95;;;;;;;18.69;100.00;100952.22;6270026;28;20064;-73
2023/07/19 08:18:01;;;;;;;2.55;1.17;;;;;;;18.75;98.35;100948.19;6275132;28;20056;-73
2023/07/19 08:21:02;;;;;;;4.10;1.55;;;;;;;18.73;98.24;100952.81;6275956;28;20054;-73
2023/07/19 08:24:04;;;;;;;4.82;1.77;;;;;;;18.78;96.55;100955.09;6279450;28;20049;-73
2023/07/19 08:27:07;;;;;;;2.22;1.42;;;;;;;18.88;93.61;100954.16;6277777;28;20343;-73
2023/07/19 08:30:15;;;;;;;6.43;1.88;;;;;;;18.93;90.11;100948.44;6279592;28;20056;-73
2023/07/19 08:33:16;;;;;;;4.65;1.50;;;;;;;19.00;90.34;100945.16;6279228;28;20346;-73
2023/07/19 08:36:17;;;;;;;2.35;1.50;;;;;;;19.06;90.72;100943.78;6281266;28;20053;-73
2023/07/19 08:39:19;;;;;;;4.93;1.67;;;;;;;19.12;90.73;100945.94;6279924;28;20360;-73
2023/07/19 08:42:22;;;;;;;1.45;1.10;;;;;;;19.20;90.54;100947.91;6279131;28;20049;-72
2023/07/19 08:45:26;;;;;;;2.85;1.55;;;;;;;19.26;88.00;100945.56;6279725;28;20049;-73
2023/07/19 08:48:29;;;;;;;3.55;1.45;;;;;;;19.40;85.01;100951.53;6272715;28;20041;-72
2023/07/19 08:51:32;;;;;;;5.85;1.42;;;;;;;19.55;81.74;100955.50;6279347;28;20130;-75
2023/07/19 08:54:34;;;;;;;2.97;1.20;;;;;;;19.55;80.73;100955.50;6278918;28;20048;-71
2023/07/19 08:57:41;;;;;;;2.22;1.00;;;;;;;19.61;78.33;100943.47;6278980;28;20336;-71
2023/07/19 09:00:42;;;;;;;1.88;1.10;;;;;;;19.71;77.99;100942.56;6271823;28;20104;-72
2023/07/19 09:03:43;;;;;;;1.73;1.10;;;;;;;19.73;78.00;100947.75;6264248;28;20052;-72
2023/07/19 09:06:45;;;;;;;3.08;1.27;;;;;;;19.93;75.96;100946.78;6272432;28;20041;-72
2023/07/19 09:09:54;;;;;;;2.13;1.13;;;;;;;19.95;75.86;100950.19;6278389;28;20056;-72
2023/07/19 09:12:58;;;;;;;4.88;1.15;;;;;;;19.97;75.30;100942.03;6276758;28;20048;-72
2023/07/19 09:15:59;;;;;;;1.42;0.70;;;;;;;19.99;75.33;100954.25;6278342;28;20353;-73
2023/07/19 09:19:01;;;;;;;6.28;1.42;;;;;;;20.05;75.87;100955.53;6277212;28;20360;-71
2023/07/19 09:22:04;;;;;;;1.13;1.00;;;;;;;20.04;74.00;100948.50;6277919;28;20059;-72
2023/07/19 09:25:09;;;;;;;4.75;1.45;;;;;;;20.09;74.86;100943.59;6277471;28;20041;-74
2023/07/19 09:28:12;;;;;;;1.98;1.25;;;;;;;20.08;75.35;100943.75;6277748;28;20037;-74
2023/07/19 09:31:14;;;;;;;2.65;0.88;;;;;;;20.02;76.16;100943.28;6275450;28;20045;-74
2023/07/19 09:34:16;;;;;;;3.92;1.67;;;;;;;20.06;76.31;100943.03;6277063;28;20348;-74
2023/07/19 09:37:20;;;;;;;1.90;0.90;;;;;;;20.16;73.12;100938.53;6277112;28;20412;-74
2023/07/19 09:40:22;;;;;;;4.55;0.98;;;;;;;20.20;72.44;100938.13;6277480;28;20076;-74
2023/07/19 09:43:25;;;;;;;1.52;1.05;;;;;;;20.19;73.30;100941.78;6276881;28;20044;-74
2023/07/19 09:46:26;;;;;;;0.95;0.77;;;;;;;20.12;72.63;100943.34;6277590;28;20056;-74
2023/07/19 09:49:28;;;;;;;1.27;1.02;;;;;;;20.08;74.48;100933.91;6277488;28;20057;-75
2023/07/19 09:52:30;;;;;;;1.77;0.95;;;;;;;20.11;74.23;100936.28;6277534;28;20044;-74
2023/07/19 09:55:32;;;;;;;1.40;0.90;;;;;;;20.21;74.94;100931.81;6277413;28;20053;-75
2023/07/19 09:58:36;;;;;;;3.85;0.77;;;;;;;20.37;72.69;100935.75;6286115;28;20192;-75
2023/07/19 10:01:40;;;;;;;1.10;0.80;;;;;;;20.39;71.32;100928.44;6277519;28;20045;-74
2023/07/19 10:04:42;;;;;;;5.57;1.00;;;;;;;20.35;71.45;100929.69;6277261;28;20081;-75
2023/07/19 10:07:48;;;;;;;2.47;0.70;;;;;;;20.30;71.73;100921.25;6277405;28;20041;-73
2023/07/19 10:10:57;;;;;;;1.67;0.80;;;;;;;20.25;72.00;100937.69;6272992;28;20045;-73
2023/07/19 10:13:59;;;;;;;2.17;1.07;;;;;;;20.31;70.52;100929.16;6277143;28;20076;-78
2023/07/19 10:17:03;;;;;;;0.73;0.52;;;;;;;20.35;71.69;100917.22;6277343;28;20449;-74
2023/07/19 10:20:10;;;;;;;1.60;0.93;;;;;;;20.39;68.10;100917.75;6277090;28;20136;-74
2023/07/19 10:23:14;;;;;;;3.33;0.80;;;;;;;20.40;69.22;100917.63;6269242;28;20400;-74
2023/07/19 10:26:29;;;;;;;1.42;0.70;;;;;;;20.45;70.83;100922.53;6277092;28;20067;-74
2023/07/19 10:29:46;;;;;;;2.95;1.23;;;;;;;20.46;69.85;100916.22;6277138;28;20048;-76
2023/07/19 10:32:50;;;;;;;3.58;1.25;;;;;;;20.55;68.12;100917.22;6282050;28;20344;-74
2023/07/19 10:35:53;;;;;;;1.92;0.90;;;;;;;20.74;69.06;100912.69;6278963;28;20053;-74
2023/07/19 10:38:54;;;;;;;3.33;0.90;;;;;;;20.78;67.20;100918.59;6282203;28;20045;-74
2023/07/19 10:41:56;;;;;;;1.48;0.63;;;;;;;20.70;68.79;100916.63;6276553;28;20056;-74
2023/07/19 10:44:58;;;;;;;1.60;0.93;;;;;;;20.61;66.76;100925.50;6276530;28;20048;-75
2023/07/19 10:48:00;;;;;;;2.15;0.60;;;;;;;20.54;65.06;100908.38;6272960;28;20048;-74
2023/07/19 10:51:04;;;;;;;3.13;0.77;;;;;;;20.59;65.58;100916.81;6274380;28;20053;-74
2023/07/19 10:54:08;;;;;;;1.77;1.25;;;;;;;20.80;64.90;100910.44;6268832;28;20134;-75
2023/07/19 10:57:09;;;;;;;1.70;0.90;;;;;;;21.03;64.48;100896.59;6271953;28;20131;-76
2023/07/19 11:00:13;;;;;;;5.03;1.00;;;;;;;21.25;63.16;100907.91;6268079;28;20045;-74
2023/07/19 11:03:16;;;;;;;1.02;0.90;;;;;;;21.27;63.02;100905.94;6275846;28;20049;-75
2023/07/19 11:06:17;;;;;;;0.98;0.80;;;;;;;21.13;63.21;100901.91;6275942;28;20064;-74
2023/07/19 11:09:19;;;;;;;5.05;0.73;;;;;;;21.11;63.93;100903.88;6276096;28;20056;-75
2023/07/19 11:12:20;;;;;;;1.95;0.73;;;;;;;21.20;63.01;100904.81;6275632;28;20106;-74
2023/07/19 11:15:26;;;;;;;1.45;0.90;;;;;;;21.22;60.82;100894.84;6276056;28;20059;-75
2023/07/19 11:18:29;;;;;;;0.80;0.70;;;;;;;21.25;63.03;100895.38;6275854;28;20405;-77
2023/07/19 11:21:30;;;;;;;2.35;0.85;;;;;;;21.21;62.64;100899.34;6275843;28;20128;-74
2023/07/19 11:24:36;;;;;;;1.52;0.77;;;;;;;21.19;62.40;100897.81;6275629;28;20048;-73
2023/07/19 11:27:39;;;;;;;2.05;0.70;;;;;;;21.18;61.49;100896.97;6284250;28;20170;-74
2023/07/19 11:30:42;;;;;;;0.85;0.85;;;;;;;21.12;62.03;100899.34;6275577;28;20053;-76
2023/07/19 11:33:48;;;;;;;0.93;0.60;;;;;;;21.15;63.78;100897.25;6271477;28;20041;-71
2023/07/19 11:36:50;;;;;;;4.35;0.73;;;;;;;21.22;64.12;100902.88;6279237;28;20049;-73
2023/07/19 11:39:52;;;;;;;1.77;1.10;;;;;;;21.21;62.81;100901.16;6277737;28;20064;-71
2023/07/19 11:42:55;;;;;;;0.57;0.50;;;;;;;21.24;64.89;100901.72;6275045;28;20056;-71
2023/07/19 11:45:58;;;;;;;2.08;0.70;;;;;;;21.37;64.06;100906.75;6275252;28;20131;-71
2023/07/19 11:48:59;;;;;;;1.38;0.68;;;;;;;21.43;62.29;100895.47;6275277;28;20377;-70
2023/07/19 11:52:00;;;;;;;2.17;1.00;;;;;;;21.67;61.71;100894.09;6274704;28;20049;-72
2023/07/19 11:55:02;;;;;;;2.00;1.02;;;;;;;21.66;59.71;100890.53;6275250;28;20049;-71
2023/07/19 11:58:03;;;;;;;1.95;0.73;;;;;;;21.59;59.61;100892.16;6275084;28;20088;-71
2023/07/19 12:01:06;;;;;;;1.52;0.77;;;;;;;21.58;60.08;100886.97;6274937;28;20349;-72
2023/07/19 12:04:08;;;;;;;3.38;1.02;;;;;;;21.63;60.37;100888.19;6274803;28;20052;-71
2023/07/19 12:07:11;;;;;;;3.28;1.10;;;;;;;21.82;59.58;100883.69;6274928;28;20056;-70
2023/07/19 12:10:12;;;;;;;2.30;0.88;;;;;;;21.88;60.39;100885.75;6275010;28;20053;-71
2023/07/19 12:13:14;;;;;;;1.30;0.60;;;;;;;21.85;59.81;100886.94;6274426;28;20045;-71
2023/07/19 12:16:17;;;;;;;4.03;1.00;;;;;;;21.85;59.44;100891.44;6274922;28;20511;-72
2023/07/19 12:19:18;;;;;;;0.90;0.65;;;;;;;22.00;61.56;100871.19;6274967;28;20142;-71
2023/07/19 12:22:20;;;;;;;1.27;0.85;;;;;;;22.07;60.35;100876.75;6283170;28;20049;-72
2023/07/19 12:25:21;;;;;;;5.38;1.00;;;;;;;22.03;58.79;100869.03;6274888;28;20369;-71
2023/07/19 12:28:23;;;;;;;2.13;0.80;;;;;;;21.89;59.27;100872.25;6274814;28;20487;-71
2023/07/19 12:31:26;;;;;;;0.88;0.75;;;;;;;21.99;59.28;100869.50;6276672;28;20045;-71
2023/07/19 12:34:28;;;;;;;3.33;0.90;;;;;;;22.21;58.78;100874.41;6282609;28;20377;-71
2023/07/19 12:37:29;;;;;;;4.65;0.80;;;;;;;22.25;56.64;100867.72;6286719;28;20372;-70
2023/07/19 12:40:33;;;;;;;0.55;0.55;;;;;;;22.19;58.07;100868.34;6275021;28;20049;-71
2023/07/19 12:43:36;;;;;;;4.75;0.90;;;;;;;22.64;57.72;100869.22;6274174;28;20049;-71
2023/07/19 12:46:40;;;;;;;1.27;1.00;;;;;;;22.88;55.83;100855.94;6274420;28;20076;-74
2023/07/19 12:49:42;;;;;;;2.97;0.90;;;;;;;22.84;56.73;100864.47;6274890;28;20049;-71
2023/07/19 12:52:44;;;;;;;1.88;0.80;;;;;;;22.48;59.02;100865.44;6273412;28;20041;-71
2023/07/19 12:55:46;;;;;;;2.35;0.82;;;;;;;22.37;60.66;100873.69;6274579;28;20041;-71
2023/07/19 12:58:48;;;;;;;0.98;0.70;;;;;;;22.44;61.28;100860.53;6274429;28;20099;-70
2023/07/19 13:01:52;;;;;;;0.63;0.60;;;;;;;22.97;59.06;100864.91;6278061;28;20048;-71
2023/07/19 13:04:54;;;;;;;1.38;0.88;;;;;;;23.12;57.48;100851.75;6278721;28;20480;-71
2023/07/19 13:07:55;;;;;;;0.98;0.60;;;;;;;23.28;56.60;100855.34;6278914;28;20353;-74
2023/07/19 13:10:57;;;;;;;1.08;0.70;;;;;;;22.99;57.32;100850.38;6278725;28;20049;-71
2023/07/19 13:13:59;;;;;;;2.53;0.82;;;;;;;22.59;57.16;100845.56;6278782;28;20476;-72
2023/07/19 13:17:01;;;;;;;0.80;0.60;;;;;;;22.38;58.65;100845.06;6278695;28;20361;-72
2023/07/19 13:20:08;;;;;;;2.17;0.80;;;;;;;22.18;61.00;100841.75;6278761;28;20053;-72
2023/07/19 13:23:10;;;;;;;1.50;0.80;;;;;;;22.04;61.77;100851.13;6278424;28;20049;-71
2023/07/19 13:26:12;;;;;;;2.65;0.88;;;;;;;21.83;65.73;100855.94;6278552;28;20056;-71
2023/07/19 13:29:13;;;;;;;0.82;0.60;;;;;;;21.83;64.13;100848.75;6281153;28;20053;-70
2023/07/19 13:32:16;;;;;;;4.10;1.05;;;;;;;21.93;65.02;100854.03;6277995;28;20068;-71
2023/07/19 13:35:17;;;;;;;3.22;1.25;;;;;;;21.89;64.83;100855.31;6278443;28;20049;-70
2023/07/19 13:38:19;;;;;;;1.92;0.85;;;;;;;21.83;65.42;100855.94;6284949;28;20049;-70
2023/07/19 13:41:21;;;;;;;2.90;0.80;;;;;;;21.82;66.09;100860.47;6277965;28;20453;-71
2023/07/19 13:44:22;;;;;;;1.40;0.60;;;;;;;21.74;64.39;100855.84;6277147;28;20049;-71
2023/07/19 13:47:25;;;;;;;1.85;0.90;;;;;;;21.65;65.59;100842.56;6277330;28;20049;-70
2023/07/19 13:50:26;;;;;;;2.40;1.30;;;;;;;21.71;66.26;100849.97;6278023;28;20059;-70
2023/07/19 13:53:29;;;;;;;1.20;0.85;;;;;;;21.69;65.13;100842.09;6277631;28;20045;-69
2023/07/19 13:56:31;;;;;;;2.95;1.23;;;;;;;21.77;64.89;100844.03;6277944;28;20498;-69
2023/07/19 13:59:32;;;;;;;3.08;0.80;;;;;;;21.90;64.46;100838.31;6277774;28;20060;-70
2023/07/19 14:02:36;;;;;;;1.45;0.70;;;;;;;22.16;64.55;100830.34;6277565;28;20479;-70